This is the latest recevied weather packets stored in our database for station/object KC0SIQ-13. If no packets are shown the sender has not sent any weather packets the latest 10 day(s).
| Time | Temp. | Humidity | Pressure | Rain* | Wind** | Luminosity | Snow |
|---|---|---|---|---|---|---|---|
| 1777503499 | 17.78° C | 31% | 1014.7 hPa | 0 mm | - | 140 W/m² | - |
| 1777503195 | 17.22° C | 29% | 1014.6 hPa | 0 mm | - | 165 W/m² | - |
| 1777502892 | 17.22° C | 30% | 1014.5 hPa | 0 mm | - | 462 W/m² | - |
| 1777502590 | 16.67° C | 32% | 1014.6 hPa | 0 mm | - | 207 W/m² | - |
| 1777502286 | 16.67° C | 31% | 1014.6 hPa | 0 mm | - | 298 W/m² | - |
| 1777501983 | 15.56° C | 33% | 1014.5 hPa | 0 mm | - | 311 W/m² | - |
| 1777501680 | 14.44° C | 34% | 1014.7 hPa | 0 mm | - | 381 W/m² | - |
| 1777501377 | 14.44° C | 35% | 1014.7 hPa | 0 mm | - | 115 W/m² | - |
| 1777501075 | 14.44° C | 35% | 1015 hPa | 0 mm | - | 141 W/m² | - |
| 1777500773 | 16.67° C | 33% | 1015 hPa | 0 mm | - | 170 W/m² | - |
| 1777500469 | 16.11° C | 33% | 1015 hPa | 0 mm | - | 265 W/m² | - |
| 1777500165 | 14.44° C | 35% | 1014.9 hPa | 0 mm | - | 394 W/m² | - |
| 1777499863 | 15° C | 35% | 1015.3 hPa | 0 mm | - | 105 W/m² | - |
| 1777499558 | 15° C | 35% | 1015 hPa | 0 mm | - | 97 W/m² | - |
| 1777499257 | 15.56° C | 35% | 1015.2 hPa | 0 mm | - | 116 W/m² | - |
| 1777498954 | 15° C | 36% | 1014.9 hPa | 0 mm | - | 132 W/m² | - |
| 1777498650 | 15° C | 37% | 1015.2 hPa | 0 mm | - | 150 W/m² | - |
| 1777498346 | 15.56° C | 36% | 1014.9 hPa | 0 mm | - | 121 W/m² | - |
| 1777498044 | 17.22° C | 34% | 1015.4 hPa | 0 mm | - | 159 W/m² | - |
| 1777497741 | 16.67° C | 33% | 1014.9 hPa | 0 mm | - | 428 W/m² | - |
| 1777497437 | 15.56° C | 34% | 1015.3 hPa | 0 mm | - | 305 W/m² | - |
| 1777497133 | 15° C | 37% | 1015.3 hPa | 0 mm | - | 176 W/m² | - |
| 1777496830 | 15° C | 37% | 1015.3 hPa | 0 mm | - | 135 W/m² | - |
| 1777496527 | 15° C | 37% | 1015.2 hPa | 0 mm | - | 162 W/m² | - |
| 1777496223 | 15.56° C | 37% | 1015.3 hPa | 0 mm | - | 174 W/m² | - |
* Rain latest hour (hover to see other rain measurements)
** Current wind speed in m/s (hover to see current wind gust speed)